createdAt,value
2023-02-11T00:00:11.854Z,101310.84
2023-02-11T00:02:39.343Z,101305.56
2023-02-11T00:05:31.213Z,101314.94
2023-02-11T00:07:59.594Z,101303.13
2023-02-11T00:10:26.364Z,101314.44
2023-02-11T00:12:53.319Z,101310.72
2023-02-11T00:15:20.159Z,101310.34
2023-02-11T00:17:48.904Z,101306.38
2023-02-11T00:20:15.991Z,101306.38
2023-02-11T00:22:43.823Z,101309.44
2023-02-11T00:25:10.611Z,101319.00
2023-02-11T00:27:39.358Z,101316.41
2023-02-11T00:30:11.427Z,101318.25
2023-02-11T00:32:38.387Z,101310.16
2023-02-11T00:35:07.272Z,101304.69
2023-02-11T00:37:35.795Z,101305.72
2023-02-11T00:40:06.708Z,101302.84
2023-02-11T00:42:35.805Z,101308.66
2023-02-11T00:45:03.645Z,101301.03
2023-02-11T00:47:31.270Z,101294.28
2023-02-11T00:49:59.714Z,101308.81
2023-02-11T00:55:19.270Z,101308.69
2023-02-11T00:57:46.466Z,101308.53
2023-02-11T01:00:17.429Z,101302.25
2023-02-11T01:02:45.346Z,101304.47
2023-02-11T01:05:12.169Z,101304.66
2023-02-11T01:07:39.277Z,101295.91
2023-02-11T01:10:06.333Z,101298.22
2023-02-11T01:12:36.955Z,101291.78
2023-02-11T01:15:05.413Z,101287.75
2023-02-11T01:17:33.646Z,101294.38
2023-02-11T01:20:06.284Z,101291.06
2023-02-11T01:22:34.849Z,101291.38
2023-02-11T01:25:03.398Z,101294.44
2023-02-11T01:27:30.819Z,101289.13
2023-02-11T01:29:57.768Z,101280.91
2023-02-11T01:32:25.479Z,101272.69
2023-02-11T01:34:55.002Z,101278.03
2023-02-11T01:37:21.860Z,101271.91
2023-02-11T01:39:49.312Z,101271.59
2023-02-11T01:42:20.619Z,101271.44
2023-02-11T01:44:52.302Z,101275.78
2023-02-11T01:47:20.867Z,101269.97
2023-02-11T01:49:58.307Z,101264.19
2023-02-11T01:52:39.830Z,101260.00
2023-02-11T01:55:13.898Z,101263.06
2023-02-11T01:57:45.493Z,101255.34
2023-02-11T02:00:22.294Z,101258.56
2023-02-11T02:02:58.597Z,101256.81
2023-02-11T02:05:47.431Z,101251.34
2023-02-11T02:08:55.062Z,101260.69
2023-02-11T02:11:26.387Z,101254.59
2023-02-11T02:13:53.319Z,101256.53
2023-02-11T02:16:31.478Z,101239.13
2023-02-11T02:19:19.688Z,101244.47
2023-02-11T02:25:33.250Z,101238.31
2023-02-11T02:28:38.175Z,101232.84
2023-02-11T02:31:12.515Z,101227.88
2023-02-11T02:34:29.349Z,101220.16
2023-02-11T02:37:05.331Z,101215.13
2023-02-11T02:39:35.916Z,101212.56
2023-02-11T02:42:06.348Z,101207.09
2023-02-11T02:44:34.834Z,101191.16
2023-02-11T02:47:04.431Z,101196.28
2023-02-11T02:49:31.446Z,101187.75
2023-02-11T02:52:28.450Z,101187.44
2023-02-11T02:55:48.163Z,101184.84
2023-02-11T02:58:50.373Z,101183.25
2023-02-11T03:01:28.833Z,101193.56
2023-02-11T03:04:12.764Z,101185.03
2023-02-11T03:06:56.003Z,101185.69
2023-02-11T03:09:32.715Z,101181.97
2023-02-11T03:12:02.513Z,101182.47
2023-02-11T03:14:32.284Z,101176.66
2023-02-11T03:17:03.442Z,101173.47
2023-02-11T03:19:42.360Z,101172.31
2023-02-11T03:22:16.872Z,101178.25
2023-02-11T03:24:45.081Z,101171.00
2023-02-11T03:27:29.236Z,101167.13
2023-02-11T03:30:12.464Z,101162.91
2023-02-11T03:32:49.402Z,101163.25
2023-02-11T03:35:41.487Z,101155.84
2023-02-11T03:38:22.020Z,101151.63
2023-02-11T03:40:53.556Z,101148.00
2023-02-11T03:43:29.389Z,101137.66
2023-02-11T03:45:59.401Z,101133.25
2023-02-11T03:48:31.164Z,101133.16
2023-02-11T03:51:03.371Z,101128.81
2023-02-11T03:53:30.194Z,101125.06
2023-02-11T03:56:00.437Z,101116.84
2023-02-11T03:58:28.006Z,101119.53
2023-02-11T04:00:55.392Z,101109.34
2023-02-11T04:03:22.272Z,101104.38
2023-02-11T04:05:51.363Z,101101.34
2023-02-11T04:08:18.468Z,101100.78
2023-02-11T04:10:45.227Z,101098.72
2023-02-11T04:13:38.400Z,101099.75
2023-02-11T04:16:05.998Z,101112.19
2023-02-11T04:18:33.440Z,101104.00
2023-02-11T04:21:00.286Z,101116.78
2023-02-11T04:23:27.065Z,101125.97
2023-02-11T04:25:53.867Z,101123.84
2023-02-11T04:28:20.761Z,101113.34
2023-02-11T04:30:50.602Z,101118.34
2023-02-11T04:33:18.025Z,101113.41
2023-02-11T04:35:45.349Z,101107.44
2023-02-11T04:38:12.468Z,101113.97
2023-02-11T04:40:39.685Z,101103.28
2023-02-11T04:43:07.101Z,101105.00
2023-02-11T04:48:27.397Z,101110.97
2023-02-11T04:50:56.298Z,101105.06
2023-02-11T04:53:24.737Z,101102.13
2023-02-11T04:55:52.404Z,101112.41
2023-02-11T04:58:20.044Z,101107.75
2023-02-11T05:03:39.399Z,101086.03
2023-02-11T05:06:07.406Z,101087.50
2023-02-11T05:08:34.932Z,101102.03
2023-02-11T05:11:02.140Z,101101.34
2023-02-11T05:13:29.559Z,101094.19
2023-02-11T05:15:56.735Z,101097.06
2023-02-11T05:18:24.446Z,101091.94
2023-02-11T05:20:53.327Z,101090.75
2023-02-11T05:23:20.889Z,101094.06
2023-02-11T05:25:47.994Z,101098.78
2023-02-11T05:28:14.953Z,101091.53
2023-02-11T05:30:42.705Z,101094.56
2023-02-11T05:33:09.890Z,101084.13
2023-02-11T05:35:37.990Z,101090.53
2023-02-11T05:38:04.812Z,101096.78
2023-02-11T05:40:31.841Z,101093.38
2023-02-11T05:42:59.428Z,101095.47
2023-02-11T05:45:26.208Z,101093.53
2023-02-11T05:47:54.453Z,101075.06
2023-02-11T05:50:21.300Z,101075.44
2023-02-11T05:52:52.986Z,101080.25
2023-02-11T05:55:20.896Z,101081.75
2023-02-11T05:57:52.692Z,101084.91
2023-02-11T06:00:44.472Z,101079.66
2023-02-11T06:03:14.567Z,101074.91
2023-02-11T06:05:43.620Z,101068.25
2023-02-11T06:08:10.551Z,101071.84
2023-02-11T06:10:39.454Z,101067.59
2023-02-11T06:13:06.253Z,101054.88
2023-02-11T06:15:33.950Z,101051.97
2023-02-11T06:18:00.930Z,101049.97
2023-02-11T06:20:27.684Z,101045.84
2023-02-11T06:22:57.924Z,101036.84
2023-02-11T06:25:24.703Z,101033.84
2023-02-11T06:27:55.111Z,101036.44
2023-02-11T06:30:48.661Z,101031.63
2023-02-11T06:33:15.757Z,101024.56
2023-02-11T06:35:42.562Z,101024.16
2023-02-11T06:38:09.502Z,101020.34
2023-02-11T06:41:01.580Z,101019.06
2023-02-11T06:43:28.507Z,101008.06
2023-02-11T06:46:20.234Z,101009.47
2023-02-11T06:48:47.266Z,100998.31
2023-02-11T06:51:17.492Z,101000.66
2023-02-11T06:53:46.626Z,101009.09
2023-02-11T06:56:16.644Z,101008.69
2023-02-11T06:58:43.545Z,100997.31
2023-02-11T07:01:14.568Z,101006.09
2023-02-11T07:03:43.775Z,101003.69
2023-02-11T07:06:14.774Z,101004.91
2023-02-11T07:08:41.787Z,101003.75
2023-02-11T07:11:17.746Z,100999.41
2023-02-11T07:13:45.635Z,100986.22
2023-02-11T07:16:15.209Z,100977.66
2023-02-11T07:18:43.719Z,100959.84
2023-02-11T07:21:13.240Z,100969.78
2023-02-11T07:23:42.570Z,100965.75
2023-02-11T07:26:12.569Z,100960.34
2023-02-11T07:28:42.675Z,100955.31
2023-02-11T07:31:13.097Z,100957.47
2023-02-11T07:33:41.726Z,100963.28
2023-02-11T07:39:02.097Z,100973.28
2023-02-11T07:41:28.994Z,100967.44
2023-02-11T07:43:56.093Z,100954.41
2023-02-11T07:46:27.366Z,100956.38
2023-02-11T07:48:54.974Z,100958.97
2023-02-11T07:51:24.883Z,100950.53
2023-02-11T07:53:52.225Z,100957.72
2023-02-11T07:56:21.996Z,100968.53
2023-02-11T07:58:52.445Z,100965.56
2023-02-11T08:01:25.218Z,100978.56
2023-02-11T08:03:58.491Z,100983.53
2023-02-11T08:06:28.393Z,100999.34
2023-02-11T08:08:55.677Z,101000.56
2023-02-11T08:11:26.425Z,100995.31
2023-02-11T08:13:55.292Z,101006.28
2023-02-11T08:16:24.751Z,101004.50
2023-02-11T08:18:53.482Z,100994.97
2023-02-11T08:21:21.994Z,100987.06
2023-02-11T08:23:49.244Z,100981.75
2023-02-11T08:26:26.473Z,100974.88
2023-02-11T08:28:55.246Z,100977.44
2023-02-11T08:31:25.006Z,100978.25
2023-02-11T08:33:53.519Z,100977.63
2023-02-11T08:36:23.769Z,100970.00
2023-02-11T08:38:51.168Z,100976.22
2023-02-11T08:41:20.616Z,100983.34
2023-02-11T08:43:48.994Z,100978.16
2023-02-11T08:46:18.825Z,100970.88
2023-02-11T08:49:10.628Z,100973.81
2023-02-11T08:51:37.538Z,100980.78
2023-02-11T08:54:04.712Z,100977.56
2023-02-11T08:56:31.759Z,100974.13
2023-02-11T08:59:23.459Z,100968.66
2023-02-11T09:02:16.568Z,100973.81
2023-02-11T09:04:44.008Z,100977.59
2023-02-11T09:07:12.526Z,100978.22
2023-02-11T09:09:39.874Z,100977.84
2023-02-11T09:12:07.921Z,100982.41
2023-02-11T09:14:37.537Z,100977.34
2023-02-11T09:17:05.048Z,100974.19
2023-02-11T09:19:32.496Z,100974.56
2023-02-11T09:21:59.632Z,100970.28
2023-02-11T09:24:27.599Z,100969.28
2023-02-11T09:26:54.340Z,100960.03
2023-02-11T09:29:22.494Z,100968.34
2023-02-11T09:31:49.435Z,100966.66
2023-02-11T09:34:48.671Z,100959.56
2023-02-11T09:37:16.030Z,100957.25
2023-02-11T09:39:42.730Z,100956.59
2023-02-11T09:45:19.748Z,100954.28
2023-02-11T09:48:06.458Z,100955.94
2023-02-11T09:50:45.483Z,100935.84
2023-02-11T09:53:22.554Z,100925.66
2023-02-11T09:55:54.471Z,100927.91
2023-02-11T09:58:34.604Z,100918.50
2023-02-11T10:01:21.110Z,100912.84
2023-02-11T10:04:01.194Z,100935.41
2023-02-11T10:06:50.647Z,100929.09
2023-02-11T10:10:01.033Z,100921.50
2023-02-11T10:12:43.511Z,100921.28
2023-02-11T10:15:34.518Z,100924.47
2023-02-11T10:18:20.468Z,100927.88
2023-02-11T10:21:09.096Z,100937.22
2023-02-11T10:23:41.140Z,100928.88
2023-02-11T10:26:18.054Z,100919.84
2023-02-11T10:28:52.827Z,100910.78
2023-02-11T10:31:28.010Z,100899.44
2023-02-11T10:34:03.221Z,100899.34
2023-02-11T10:36:37.057Z,100882.34
2023-02-11T10:39:22.558Z,100880.34
2023-02-11T10:42:07.308Z,100891.69
2023-02-11T10:44:55.521Z,100878.50
2023-02-11T10:47:47.392Z,100877.47
2023-02-11T10:50:39.942Z,100876.25
2023-02-11T10:53:18.153Z,100870.00
2023-02-11T10:55:52.482Z,100880.78
2023-02-11T10:58:29.150Z,100875.56
2023-02-11T11:00:59.808Z,100868.66
2023-02-11T11:03:39.783Z,100847.97
2023-02-11T11:06:09.949Z,100884.66
2023-02-11T11:08:44.394Z,100849.22
2023-02-11T11:11:16.495Z,100857.66
2023-02-11T11:13:52.283Z,100855.47
2023-02-11T11:16:26.340Z,100851.03
2023-02-11T11:19:14.965Z,100841.50
2023-02-11T11:21:42.564Z,100833.53
2023-02-11T11:24:22.084Z,100825.22
2023-02-11T11:26:56.517Z,100824.47
2023-02-11T11:29:31.064Z,100818.88
2023-02-11T11:32:33.696Z,100809.91
2023-02-11T11:35:04.823Z,100796.03
2023-02-11T11:37:38.525Z,100800.22
2023-02-11T11:40:35.445Z,100784.75
2023-02-11T11:46:10.275Z,100793.19
2023-02-11T11:48:37.007Z,100777.16
2023-02-11T11:51:11.757Z,100784.75
2023-02-11T11:53:44.314Z,100768.16
2023-02-11T11:56:25.518Z,100759.41
2023-02-11T11:58:52.670Z,100749.47
2023-02-11T12:01:35.524Z,100743.13
2023-02-11T12:04:24.596Z,100726.94
2023-02-11T12:07:12.371Z,100724.09
2023-02-11T12:10:06.104Z,100721.22
2023-02-11T12:13:04.533Z,100711.81
2023-02-11T12:15:53.744Z,100705.88
2023-02-11T12:18:54.450Z,100714.59
2023-02-11T12:21:49.347Z,100708.16
2023-02-11T12:24:56.612Z,100704.53
2023-02-11T12:27:38.838Z,100702.13
2023-02-11T12:30:40.808Z,100700.97
2023-02-11T12:33:36.260Z,100700.28
2023-02-11T12:36:30.542Z,100705.41
2023-02-11T12:39:30.142Z,100698.59
2023-02-11T12:42:32.575Z,100705.19
2023-02-11T12:45:11.798Z,100704.59
2023-02-11T12:48:08.313Z,100697.66
2023-02-11T12:50:54.537Z,100705.25
2023-02-11T12:53:26.530Z,100684.66
2023-02-11T12:56:16.043Z,100686.06
2023-02-11T12:58:46.746Z,100707.09
2023-02-11T13:01:23.810Z,100704.22
2023-02-11T13:04:11.249Z,100702.19
2023-02-11T13:07:16.437Z,100706.75
2023-02-11T13:10:06.479Z,100703.34
2023-02-11T13:12:37.447Z,100715.91
2023-02-11T13:15:08.531Z,100713.81
2023-02-11T13:17:52.978Z,100717.78
2023-02-11T13:20:48.699Z,100720.41
2023-02-11T13:23:53.001Z,100726.38
2023-02-11T13:26:32.604Z,100716.84
2023-02-11T13:29:27.405Z,100731.44
2023-02-11T13:32:14.139Z,100732.53
2023-02-11T13:35:31.523Z,100728.88
2023-02-11T13:38:02.623Z,100732.53
2023-02-11T13:40:37.071Z,100738.81
2023-02-11T13:43:09.510Z,100728.75
2023-02-11T13:45:45.987Z,100738.75
2023-02-11T13:48:26.949Z,100743.75
2023-02-11T13:50:57.851Z,100726.81
2023-02-11T13:53:30.745Z,100732.84
2023-02-11T13:56:12.759Z,100715.00
2023-02-11T13:58:55.000Z,100713.75
2023-02-11T14:01:47.419Z,100719.91
2023-02-11T14:07:27.929Z,100726.50
2023-02-11T14:09:56.048Z,100720.56
2023-02-11T14:12:35.918Z,100715.56
2023-02-11T14:15:07.866Z,100730.69
2023-02-11T14:17:36.818Z,100725.38
2023-02-11T14:20:27.055Z,100729.81
2023-02-11T14:22:57.274Z,100730.59
2023-02-11T14:25:26.149Z,100732.09
2023-02-11T14:28:03.559Z,100735.16
2023-02-11T14:30:55.888Z,100729.81
2023-02-11T14:33:43.650Z,100706.88
2023-02-11T14:36:39.511Z,100719.94
2023-02-11T14:39:28.445Z,100707.59
2023-02-11T14:41:56.992Z,100704.41
2023-02-11T14:44:30.326Z,100719.28
2023-02-11T14:47:00.924Z,100710.88
2023-02-11T14:49:40.095Z,100713.47
2023-02-11T14:55:29.199Z,100722.94
2023-02-11T14:58:32.475Z,100718.06
2023-02-11T15:01:10.734Z,100720.69
2023-02-11T15:03:48.510Z,100731.50
2023-02-11T15:06:25.502Z,100718.97
2023-02-11T15:09:19.377Z,100719.69
2023-02-11T15:11:49.783Z,100718.09
2023-02-11T15:14:35.218Z,100727.19
2023-02-11T15:17:06.802Z,100730.81
2023-02-11T15:19:41.996Z,100726.63
2023-02-11T15:22:23.275Z,100721.63
2023-02-11T15:25:10.717Z,100727.63
2023-02-11T15:27:43.897Z,100733.41
2023-02-11T15:30:23.240Z,100733.41
2023-02-11T15:32:53.604Z,100742.16
2023-02-11T15:35:23.114Z,100738.19
2023-02-11T15:37:56.694Z,100734.91
2023-02-11T15:40:28.522Z,100728.88
2023-02-11T15:43:01.063Z,100732.88
2023-02-11T15:45:31.355Z,100742.72
2023-02-11T15:48:15.897Z,100737.16
2023-02-11T15:50:53.764Z,100735.00
2023-02-11T15:53:38.001Z,100728.00
2023-02-11T15:56:23.090Z,100716.97
2023-02-11T15:58:54.489Z,100716.72
2023-02-11T16:01:37.846Z,100707.13
2023-02-11T16:04:06.560Z,100705.75
2023-02-11T16:06:42.849Z,100705.84
2023-02-11T16:09:12.106Z,100701.09
2023-02-11T16:11:46.906Z,100698.59
2023-02-11T16:14:30.875Z,100697.44
2023-02-11T16:17:09.922Z,100708.91
2023-02-11T16:20:02.139Z,100713.91
2023-02-11T16:22:32.523Z,100723.09
2023-02-11T16:25:02.261Z,100726.94
2023-02-11T16:27:41.965Z,100722.06
2023-02-11T16:30:36.186Z,100732.59
2023-02-11T16:33:09.524Z,100741.91
2023-02-11T16:35:37.242Z,100736.47
2023-02-11T16:38:08.041Z,100748.25
2023-02-11T16:40:35.792Z,100748.84
2023-02-11T16:43:03.684Z,100747.25
2023-02-11T16:45:37.356Z,100760.75
2023-02-11T16:48:09.490Z,100754.41
2023-02-11T16:51:02.208Z,100750.66
2023-02-11T16:53:30.643Z,100745.88
2023-02-11T16:56:02.984Z,100761.66
2023-02-11T16:58:30.753Z,100745.34
2023-02-11T17:01:04.829Z,100741.94
2023-02-11T17:03:57.020Z,100742.38
2023-02-11T17:06:24.985Z,100742.38
2023-02-11T17:08:53.151Z,100767.09
2023-02-11T17:11:26.029Z,100764.38
2023-02-11T17:13:53.311Z,100761.63
2023-02-11T17:16:24.576Z,100762.88
2023-02-11T17:18:53.404Z,100744.75
2023-02-11T17:21:22.090Z,100771.28
2023-02-11T17:23:50.478Z,100776.25
2023-02-11T17:26:17.758Z,100771.38
2023-02-11T17:28:45.604Z,100777.53
2023-02-11T17:31:13.147Z,100779.91
2023-02-11T17:33:43.052Z,100784.56
2023-02-11T17:36:11.102Z,100779.78
2023-02-11T17:38:41.074Z,100782.94
2023-02-11T17:41:08.816Z,100777.63
2023-02-11T17:43:36.101Z,100784.50
2023-02-11T17:49:00.573Z,100784.56
2023-02-11T17:51:31.939Z,100789.19
2023-02-11T17:54:04.187Z,100775.91
2023-02-11T17:56:35.921Z,100773.88
2023-02-11T17:59:08.516Z,100781.72
2023-02-11T18:01:37.489Z,100793.53
2023-02-11T18:04:06.942Z,100778.56
2023-02-11T18:06:34.844Z,100794.22
2023-02-11T18:09:02.964Z,100780.59
2023-02-11T18:11:33.918Z,100782.66
2023-02-11T18:14:07.941Z,100788.66
2023-02-11T18:16:38.243Z,100782.19
2023-02-11T18:19:07.997Z,100779.00
2023-02-11T18:21:36.139Z,100779.72
2023-02-11T18:24:07.006Z,100793.78
2023-02-11T18:26:35.907Z,100789.00
2023-02-11T18:29:04.788Z,100800.44
2023-02-11T18:31:33.640Z,100795.38
2023-02-11T18:34:03.609Z,100795.00
2023-02-11T18:36:32.252Z,100801.81
2023-02-11T18:39:00.702Z,100804.06
2023-02-11T18:41:29.123Z,100807.72
2023-02-11T18:43:58.983Z,100811.09
2023-02-11T18:46:26.804Z,100809.28
2023-02-11T18:48:56.094Z,100816.31
2023-02-11T18:51:49.176Z,100818.69
2023-02-11T18:54:17.697Z,100820.31
2023-02-11T18:56:46.324Z,100812.03
2023-02-11T18:59:13.919Z,100820.06
2023-02-11T19:01:42.140Z,100831.88
2023-02-11T19:04:10.675Z,100827.22
2023-02-11T19:06:41.741Z,100818.41
2023-02-11T19:09:18.813Z,100819.19
2023-02-11T19:14:40.005Z,100826.22
2023-02-11T19:17:09.681Z,100838.00
2023-02-11T19:19:43.474Z,100836.06
2023-02-11T19:22:11.796Z,100840.47
2023-02-11T19:24:39.508Z,100843.28
2023-02-11T19:27:33.047Z,100844.56
2023-02-11T19:30:07.322Z,100843.88
2023-02-11T19:32:39.911Z,100842.31
2023-02-11T19:35:35.457Z,100843.78
2023-02-11T19:38:07.052Z,100839.72
2023-02-11T19:40:35.204Z,100829.50
2023-02-11T19:43:06.079Z,100830.75
2023-02-11T19:45:34.044Z,100836.53
2023-02-11T19:48:01.803Z,100835.72
2023-02-11T19:50:32.634Z,100821.44
2023-02-11T19:53:00.273Z,100828.13
2023-02-11T19:55:29.065Z,100829.50
2023-02-11T19:57:57.563Z,100837.09
2023-02-11T20:00:25.545Z,100830.19
2023-02-11T20:02:53.376Z,100818.84
2023-02-11T20:05:24.845Z,100836.88
2023-02-11T20:07:54.994Z,100830.88
2023-02-11T20:10:24.536Z,100840.75
2023-02-11T20:12:54.177Z,100832.09
2023-02-11T20:15:23.299Z,100833.91
2023-02-11T20:17:54.782Z,100837.09
2023-02-11T20:20:22.756Z,100840.75
2023-02-11T20:22:52.987Z,100835.19
2023-02-11T20:25:20.553Z,100843.00
2023-02-11T20:27:47.981Z,100841.66
2023-02-11T20:30:16.095Z,100848.56
2023-02-11T20:32:43.974Z,100848.22
2023-02-11T20:35:12.207Z,100841.88
2023-02-11T20:37:43.793Z,100856.16
2023-02-11T20:40:13.990Z,100847.19
2023-02-11T20:42:45.012Z,100857.41
2023-02-11T20:45:12.592Z,100873.28
2023-02-11T20:47:43.202Z,100862.84
2023-02-11T20:50:11.677Z,100847.97
2023-02-11T20:52:39.646Z,100854.34
2023-02-11T20:55:07.235Z,100839.91
2023-02-11T20:57:37.083Z,100833.72
2023-02-11T21:00:06.372Z,100839.28
2023-02-11T21:02:36.542Z,100833.56
2023-02-11T21:05:04.745Z,100830.75
2023-02-11T21:07:34.038Z,100837.09
2023-02-11T21:10:03.349Z,100837.31
2023-02-11T21:12:31.015Z,100832.91
2023-02-11T21:14:58.975Z,100833.47
2023-02-11T21:17:31.733Z,100830.31
2023-02-11T21:20:00.990Z,100822.25
2023-02-11T21:22:30.290Z,100816.78
2023-02-11T21:27:51.954Z,100812.59
2023-02-11T21:30:19.841Z,100815.66
2023-02-11T21:32:49.991Z,100816.31
2023-02-11T21:35:17.984Z,100817.13
2023-02-11T21:37:46.052Z,100822.22
2023-02-11T21:40:23.130Z,100829.69
2023-02-11T21:42:51.910Z,100827.66
2023-02-11T21:45:19.543Z,100833.44
2023-02-11T21:48:14.066Z,100817.00
2023-02-11T21:50:47.036Z,100814.41
2023-02-11T21:53:15.125Z,100821.19
2023-02-11T21:55:42.664Z,100814.41
2023-02-11T21:58:13.668Z,100814.03
2023-02-11T22:00:41.403Z,100814.84
2023-02-11T22:03:08.416Z,100817.88
2023-02-11T22:05:42.273Z,100815.50
2023-02-11T22:08:10.337Z,100819.69
2023-02-11T22:10:37.597Z,100832.94
2023-02-11T22:13:05.545Z,100819.69
2023-02-11T22:15:32.903Z,100817.53
2023-02-11T22:18:00.075Z,100845.09
2023-02-11T22:20:29.075Z,100843.19
2023-02-11T22:22:58.481Z,100845.56
2023-02-11T22:25:25.430Z,100856.00
2023-02-11T22:27:52.401Z,100847.72
2023-02-11T22:30:19.275Z,100857.72
2023-02-11T22:32:47.125Z,100847.72
2023-02-11T22:35:14.099Z,100855.00
2023-02-11T22:37:41.053Z,100867.00
2023-02-11T22:40:08.603Z,100862.59
2023-02-11T22:42:40.600Z,100864.41
2023-02-11T22:45:07.861Z,100873.81
2023-02-11T22:47:35.138Z,100879.72
2023-02-11T22:50:02.026Z,100871.34
2023-02-11T22:52:32.026Z,100877.34
2023-02-11T22:55:00.275Z,100882.56
2023-02-11T22:57:27.631Z,100888.34
2023-02-11T22:59:55.338Z,100887.56
2023-02-11T23:02:22.197Z,100878.59
2023-02-11T23:07:42.047Z,100895.03
2023-02-11T23:10:09.692Z,100899.03
2023-02-11T23:12:38.098Z,100897.88
2023-02-11T23:15:05.626Z,100883.69
2023-02-11T23:17:33.078Z,100900.50
2023-02-11T23:20:00.619Z,100893.09
2023-02-11T23:22:28.091Z,100907.72
2023-02-11T23:24:55.234Z,100903.28
2023-02-11T23:27:22.111Z,100892.66
2023-02-11T23:29:49.618Z,100891.03
2023-02-11T23:32:16.537Z,100903.28
2023-02-11T23:34:44.629Z,100890.25
2023-02-11T23:37:11.440Z,100892.66
2023-02-11T23:39:39.224Z,100885.47
2023-02-11T23:42:06.606Z,100883.53
2023-02-11T23:44:37.042Z,100888.31
2023-02-11T23:47:04.584Z,100898.16
2023-02-11T23:49:31.524Z,100886.28
2023-02-11T23:51:58.462Z,100904.84
2023-02-11T23:54:26.214Z,100892.94
2023-02-11T23:56:54.115Z,100891.72
2023-02-11T23:59:21.167Z,100907.00
